createdAt,value
2022-12-11T00:01:22.338Z,3.90
2022-12-11T00:03:49.827Z,3.90
2022-12-11T00:06:19.622Z,3.80
2022-12-11T00:08:46.900Z,3.90
2022-12-11T00:11:17.707Z,3.80
2022-12-11T00:13:45.023Z,3.90
2022-12-11T00:16:12.180Z,3.90
2022-12-11T00:18:39.203Z,3.90
2022-12-11T00:21:08.403Z,3.80
2022-12-11T00:23:36.296Z,3.80
2022-12-11T00:26:07.825Z,3.90
2022-12-11T00:28:34.874Z,3.90
2022-12-11T00:31:06.446Z,3.80
2022-12-11T00:33:33.467Z,3.80
2022-12-11T00:36:00.776Z,3.80
2022-12-11T00:38:27.934Z,3.80
2022-12-11T00:40:59.289Z,3.80
2022-12-11T00:43:26.317Z,3.80
2022-12-11T00:45:53.440Z,3.80
2022-12-11T00:48:20.524Z,3.80
2022-12-11T00:50:47.597Z,3.80
2022-12-11T00:53:14.616Z,3.80
2022-12-11T00:55:43.238Z,3.80
2022-12-11T00:58:10.537Z,3.80
2022-12-11T01:00:38.587Z,3.80
2022-12-11T01:03:06.181Z,3.80
2022-12-11T01:05:33.887Z,3.80
2022-12-11T01:08:02.185Z,3.70
2022-12-11T01:10:29.322Z,3.70
2022-12-11T01:13:06.937Z,3.70
2022-12-11T01:15:45.449Z,3.70
2022-12-11T01:18:13.265Z,3.60
2022-12-11T01:20:42.551Z,3.50
2022-12-11T01:23:13.193Z,3.40
2022-12-11T01:25:41.005Z,3.40
2022-12-11T01:28:08.918Z,3.40
2022-12-11T01:30:36.686Z,3.30
2022-12-11T01:33:04.485Z,3.30
2022-12-11T01:35:31.537Z,3.30
2022-12-11T01:37:59.313Z,3.20
2022-12-11T01:40:26.378Z,3.20
2022-12-11T01:42:53.303Z,3.20
2022-12-11T01:45:20.324Z,3.20
2022-12-11T01:47:51.119Z,3.10
2022-12-11T01:50:18.629Z,3.10
2022-12-11T01:52:49.383Z,3.10
2022-12-11T01:55:18.228Z,3.10
2022-12-11T01:57:49.542Z,3.00
2022-12-11T02:00:17.637Z,3.00
2022-12-11T02:02:44.688Z,3.00
2022-12-11T02:05:12.348Z,3.00
2022-12-11T02:07:46.335Z,3.00
2022-12-11T02:10:14.120Z,3.00
2022-12-11T02:12:50.092Z,3.00
2022-12-11T02:15:19.882Z,3.00
2022-12-11T02:17:46.914Z,3.00
2022-12-11T02:20:16.949Z,3.00
2022-12-11T02:23:09.584Z,3.00
2022-12-11T02:25:53.796Z,3.00
2022-12-11T02:28:30.331Z,2.90
2022-12-11T02:31:12.426Z,2.90
2022-12-11T02:34:01.199Z,2.90
2022-12-11T02:36:33.373Z,2.90
2022-12-11T02:39:02.814Z,2.90
2022-12-11T02:41:31.357Z,2.90
2022-12-11T02:44:00.396Z,2.90
2022-12-11T02:46:28.887Z,2.90
2022-12-11T02:48:56.695Z,2.90
2022-12-11T02:51:33.788Z,2.90
2022-12-11T02:54:02.326Z,2.90
2022-12-11T02:56:55.380Z,2.90
2022-12-11T02:59:30.283Z,2.90
2022-12-11T03:01:57.427Z,2.90
2022-12-11T03:04:25.057Z,2.90
2022-12-11T03:06:55.422Z,2.90
2022-12-11T03:09:22.481Z,2.90
2022-12-11T03:11:49.475Z,2.90
2022-12-11T03:14:16.472Z,2.90
2022-12-11T03:16:55.243Z,2.90
2022-12-11T03:19:22.195Z,2.80
2022-12-11T03:22:00.593Z,2.90
2022-12-11T03:24:45.600Z,2.90
2022-12-11T03:27:24.991Z,2.80
2022-12-11T03:30:00.268Z,2.80
2022-12-11T03:32:32.719Z,2.80
2022-12-11T03:35:13.802Z,2.80
2022-12-11T03:37:43.719Z,2.80
2022-12-11T03:40:17.565Z,2.80
2022-12-11T03:42:47.118Z,2.80
2022-12-11T03:45:16.171Z,2.80
2022-12-11T03:47:44.232Z,2.80
2022-12-11T03:50:13.559Z,2.80
2022-12-11T03:52:45.936Z,2.80
2022-12-11T03:55:16.465Z,2.80
2022-12-11T03:57:43.637Z,2.80
2022-12-11T04:00:14.147Z,2.80
2022-12-11T04:02:42.272Z,2.80
2022-12-11T04:05:11.169Z,2.80
2022-12-11T04:07:38.361Z,2.80
2022-12-11T04:10:06.122Z,2.80
2022-12-11T04:12:33.093Z,2.90
2022-12-11T04:15:04.267Z,2.80
2022-12-11T04:17:54.749Z,2.80
2022-12-11T04:20:40.705Z,2.80
2022-12-11T04:23:31.798Z,2.80
2022-12-11T04:26:17.536Z,2.80
2022-12-11T04:28:46.460Z,2.90
2022-12-11T04:31:15.715Z,2.90
2022-12-11T04:33:42.979Z,2.80
2022-12-11T04:36:10.466Z,2.80
2022-12-11T04:38:38.037Z,2.80
2022-12-11T04:41:11.997Z,2.80
2022-12-11T04:43:39.510Z,2.80
2022-12-11T04:46:10.926Z,3.00
2022-12-11T04:48:39.288Z,2.90
2022-12-11T04:51:07.112Z,3.00
2022-12-11T04:53:35.485Z,2.80
2022-12-11T04:56:05.605Z,2.80
2022-12-11T04:58:32.649Z,2.70
2022-12-11T05:00:59.724Z,2.70
2022-12-11T05:03:26.810Z,2.70
2022-12-11T05:05:54.294Z,2.70
2022-12-11T05:08:22.123Z,2.70
2022-12-11T05:11:04.273Z,2.70
2022-12-11T05:13:31.637Z,2.70
2022-12-11T05:15:59.399Z,2.70
2022-12-11T05:18:26.712Z,2.70
2022-12-11T05:20:58.190Z,2.70
2022-12-11T05:23:26.822Z,2.70
2022-12-11T05:26:03.826Z,2.70
2022-12-11T05:28:36.460Z,2.70
2022-12-11T05:31:14.868Z,2.70
2022-12-11T05:33:42.068Z,2.80
2022-12-11T05:36:09.747Z,2.80
2022-12-11T05:38:36.679Z,2.70
2022-12-11T05:41:06.514Z,2.70
2022-12-11T05:43:35.231Z,2.80
2022-12-11T05:46:08.329Z,2.70
2022-12-11T05:48:35.870Z,2.70
2022-12-11T05:51:03.897Z,2.70
2022-12-11T05:53:31.264Z,2.80
2022-12-11T05:56:06.017Z,2.70
2022-12-11T05:58:34.491Z,2.80
2022-12-11T06:01:01.925Z,2.70
2022-12-11T06:03:28.987Z,2.70
2022-12-11T06:05:55.962Z,2.70
2022-12-11T06:08:23.020Z,2.70
2022-12-11T06:10:50.790Z,2.80
2022-12-11T06:13:18.402Z,2.80
2022-12-11T06:15:45.422Z,2.80
2022-12-11T06:18:12.481Z,2.80
2022-12-11T06:20:39.543Z,2.80
2022-12-11T06:23:06.803Z,2.80
2022-12-11T06:25:33.751Z,2.80
2022-12-11T06:28:00.702Z,2.80
2022-12-11T06:30:39.115Z,2.80
2022-12-11T06:33:07.014Z,2.80
2022-12-11T06:35:38.753Z,2.80
2022-12-11T06:38:09.071Z,2.80
2022-12-11T06:40:36.086Z,2.80
2022-12-11T06:43:03.601Z,2.90
2022-12-11T06:45:30.939Z,2.90
2022-12-11T06:47:58.917Z,2.80
2022-12-11T06:50:26.471Z,2.90
2022-12-11T06:52:53.666Z,2.80
2022-12-11T06:55:20.769Z,2.90
2022-12-11T06:57:47.771Z,2.80
2022-12-11T07:00:15.564Z,2.80
2022-12-11T07:02:42.498Z,2.80
2022-12-11T07:05:10.005Z,2.80
2022-12-11T07:07:37.233Z,2.80
2022-12-11T07:10:08.377Z,2.80
2022-12-11T07:12:36.139Z,2.80
2022-12-11T07:15:04.461Z,2.80
2022-12-11T07:17:31.632Z,2.70
2022-12-11T07:19:58.584Z,2.70
2022-12-11T07:22:25.562Z,2.70
2022-12-11T07:24:52.674Z,2.70
2022-12-11T07:27:19.682Z,2.80
2022-12-11T07:29:46.626Z,2.70
2022-12-11T07:32:13.764Z,2.70
2022-12-11T07:34:41.445Z,2.70
2022-12-11T07:37:08.540Z,2.70
2022-12-11T07:39:35.459Z,2.70
2022-12-11T07:42:02.455Z,2.70
2022-12-11T07:44:29.898Z,2.70
2022-12-11T07:46:56.830Z,2.60
2022-12-11T07:49:23.891Z,2.70
2022-12-11T07:51:50.881Z,2.60
2022-12-11T07:54:18.243Z,2.60
2022-12-11T07:56:52.804Z,2.60
2022-12-11T07:59:21.205Z,2.60
2022-12-11T08:01:48.390Z,2.60
2022-12-11T08:04:15.979Z,2.60
2022-12-11T08:06:43.795Z,2.60
2022-12-11T08:09:20.639Z,2.60
2022-12-11T08:11:50.614Z,2.60
2022-12-11T08:14:18.379Z,2.50
2022-12-11T08:16:45.449Z,2.60
2022-12-11T08:19:13.473Z,2.50
2022-12-11T08:21:41.212Z,2.50
2022-12-11T08:24:09.069Z,2.50
2022-12-11T08:26:36.513Z,2.50
2022-12-11T08:29:03.819Z,2.50
2022-12-11T08:31:33.279Z,2.50
2022-12-11T08:34:00.420Z,2.50
2022-12-11T08:36:27.603Z,2.40
2022-12-11T08:38:55.924Z,2.40
2022-12-11T08:41:32.088Z,2.40
2022-12-11T08:44:00.423Z,2.40
2022-12-11T08:46:31.228Z,2.40
2022-12-11T08:48:58.945Z,2.30
2022-12-11T08:51:28.322Z,2.30
2022-12-11T08:53:57.474Z,2.30
2022-12-11T08:56:25.208Z,2.30
2022-12-11T08:58:52.805Z,2.30
2022-12-11T09:01:26.219Z,2.30
2022-12-11T09:03:55.237Z,2.30
2022-12-11T09:06:24.666Z,2.30
2022-12-11T09:08:53.497Z,2.30
2022-12-11T09:11:23.703Z,2.30
2022-12-11T09:13:53.584Z,2.30
2022-12-11T09:16:23.552Z,2.30
2022-12-11T09:18:52.712Z,2.30
2022-12-11T09:21:23.368Z,2.30
2022-12-11T09:23:53.855Z,2.30
2022-12-11T09:26:21.400Z,2.30
2022-12-11T09:28:51.271Z,2.30
2022-12-11T09:31:29.501Z,2.20
2022-12-11T09:33:59.618Z,2.20
2022-12-11T09:36:27.705Z,2.20
2022-12-11T09:38:54.874Z,2.20
2022-12-11T09:41:22.324Z,2.20
2022-12-11T09:44:12.701Z,2.20
2022-12-11T09:46:41.792Z,2.20
2022-12-11T09:49:24.114Z,2.20
2022-12-11T09:52:02.005Z,2.20
2022-12-11T09:54:29.019Z,2.20
2022-12-11T09:57:14.047Z,2.20
2022-12-11T10:00:05.706Z,2.20
2022-12-11T10:02:45.402Z,2.30
2022-12-11T10:05:47.622Z,2.30
2022-12-11T10:08:35.960Z,2.30
2022-12-11T10:11:16.292Z,2.30
2022-12-11T10:14:10.470Z,2.30
2022-12-11T10:16:54.451Z,2.30
2022-12-11T10:19:27.739Z,2.30
2022-12-11T10:21:55.839Z,2.30
2022-12-11T10:27:31.419Z,2.30
2022-12-11T10:30:27.534Z,2.30
2022-12-11T10:33:40.524Z,2.30
2022-12-11T10:36:09.085Z,2.40
2022-12-11T10:38:40.670Z,2.30
2022-12-11T10:41:27.025Z,2.30
2022-12-11T10:43:54.094Z,2.40
2022-12-11T10:46:24.297Z,2.40
2022-12-11T10:48:55.629Z,2.40
2022-12-11T10:51:25.801Z,2.40
2022-12-11T10:54:02.658Z,2.40
2022-12-11T10:56:34.606Z,2.40
2022-12-11T10:59:01.864Z,2.40
2022-12-11T11:01:32.034Z,2.40
2022-12-11T11:03:59.027Z,2.40
2022-12-11T11:06:26.678Z,2.40
2022-12-11T11:08:56.964Z,2.40
2022-12-11T11:11:36.887Z,2.40
2022-12-11T11:14:21.963Z,2.40
2022-12-11T11:16:56.482Z,2.40
2022-12-11T11:19:37.053Z,2.50
2022-12-11T11:22:18.014Z,2.50
2022-12-11T11:24:52.652Z,2.50
2022-12-11T11:27:31.650Z,2.50
2022-12-11T11:30:01.765Z,2.60
2022-12-11T11:32:38.776Z,2.60
2022-12-11T11:35:18.922Z,2.60
2022-12-11T11:37:54.147Z,2.60
2022-12-11T11:40:31.256Z,2.60
2022-12-11T11:43:18.911Z,2.60
2022-12-11T11:45:53.978Z,2.60
2022-12-11T11:48:48.875Z,2.60
2022-12-11T11:51:21.477Z,2.70
2022-12-11T11:53:51.405Z,2.70
2022-12-11T11:56:26.732Z,2.70
2022-12-11T11:59:18.462Z,2.70
2022-12-11T12:01:45.588Z,2.70
2022-12-11T12:04:12.914Z,2.70
2022-12-11T12:07:41.075Z,2.80
2022-12-11T12:10:31.308Z,2.80
2022-12-11T12:13:44.794Z,2.80
2022-12-11T12:16:50.426Z,2.90
2022-12-11T12:19:32.825Z,2.90
2022-12-11T12:22:20.782Z,2.90
2022-12-11T12:25:10.629Z,2.90
2022-12-11T12:27:53.325Z,3.00
2022-12-11T12:30:23.416Z,3.00
2022-12-11T12:33:02.513Z,3.00
2022-12-11T12:35:36.821Z,3.00
2022-12-11T12:38:14.178Z,3.00
2022-12-11T12:41:35.372Z,3.00
2022-12-11T12:44:11.495Z,3.10
2022-12-11T12:46:38.620Z,3.10
2022-12-11T12:49:12.718Z,3.10
2022-12-11T12:51:40.706Z,3.10
2022-12-11T12:54:12.650Z,3.10
2022-12-11T12:56:40.727Z,3.20
2022-12-11T12:59:23.626Z,3.20
2022-12-11T13:01:55.245Z,3.20
2022-12-11T13:04:58.884Z,3.20
2022-12-11T13:07:32.740Z,3.20
2022-12-11T13:10:23.341Z,3.20
2022-12-11T13:12:50.611Z,3.20
2022-12-11T13:15:26.039Z,3.20
2022-12-11T13:17:53.372Z,3.30
2022-12-11T13:20:23.131Z,3.30
2022-12-11T13:22:56.949Z,3.20
2022-12-11T13:25:26.392Z,3.20
2022-12-11T13:28:04.203Z,3.20
2022-12-11T13:30:31.141Z,3.20
2022-12-11T13:33:05.795Z,3.20
2022-12-11T13:35:34.189Z,3.20
2022-12-11T13:38:15.685Z,3.20
2022-12-11T13:40:44.396Z,3.20
2022-12-11T13:43:29.743Z,3.30
2022-12-11T13:46:03.903Z,3.30
2022-12-11T13:48:39.410Z,3.20
2022-12-11T13:51:07.129Z,3.30
2022-12-11T13:53:34.329Z,3.30
2022-12-11T13:56:03.023Z,3.30
2022-12-11T13:58:33.911Z,3.30
2022-12-11T14:01:23.077Z,3.30
2022-12-11T14:03:59.553Z,3.30
2022-12-11T14:06:28.606Z,3.30
2022-12-11T14:08:59.600Z,3.30
2022-12-11T14:11:34.423Z,3.30
2022-12-11T14:14:04.554Z,3.30
2022-12-11T14:16:31.670Z,3.30
2022-12-11T14:19:09.873Z,3.30
2022-12-11T14:21:37.172Z,3.30
2022-12-11T14:24:06.667Z,3.30
2022-12-11T14:26:38.774Z,3.30
2022-12-11T14:29:06.632Z,3.30
2022-12-11T14:31:40.089Z,3.30
2022-12-11T14:34:18.965Z,3.30
2022-12-11T14:36:47.848Z,3.30
2022-12-11T14:39:21.057Z,3.30
2022-12-11T14:42:13.938Z,3.20
2022-12-11T14:44:56.401Z,3.20
2022-12-11T14:47:29.554Z,3.20
2022-12-11T14:50:06.438Z,3.20
2022-12-11T14:52:47.400Z,3.20
2022-12-11T14:55:25.041Z,3.20
2022-12-11T14:57:59.880Z,3.20
2022-12-11T15:00:38.788Z,3.20
2022-12-11T15:03:07.579Z,3.20
2022-12-11T15:05:40.509Z,3.20
2022-12-11T15:08:10.989Z,3.20
2022-12-11T15:10:42.449Z,3.20
2022-12-11T15:13:10.264Z,3.20
2022-12-11T15:15:47.814Z,3.20
2022-12-11T15:18:48.273Z,3.20
2022-12-11T15:21:16.792Z,3.20
2022-12-11T15:23:53.389Z,3.20
2022-12-11T15:26:32.090Z,3.20
2022-12-11T15:29:06.761Z,3.20
2022-12-11T15:31:37.848Z,3.10
2022-12-11T15:34:23.075Z,3.20
2022-12-11T15:36:50.157Z,3.10
2022-12-11T15:39:17.107Z,3.20
2022-12-11T15:41:44.164Z,3.10
2022-12-11T15:44:20.069Z,3.20
2022-12-11T15:46:47.047Z,3.20
2022-12-11T15:49:14.570Z,3.10
2022-12-11T15:51:43.417Z,3.10
2022-12-11T15:54:10.584Z,3.10
2022-12-11T15:56:37.582Z,3.10
2022-12-11T15:59:07.081Z,3.00
2022-12-11T16:01:34.891Z,3.00
2022-12-11T16:04:05.110Z,3.00
2022-12-11T16:06:33.225Z,3.00
2022-12-11T16:09:01.331Z,2.90
2022-12-11T16:11:28.546Z,2.90
2022-12-11T16:13:55.487Z,2.90
2022-12-11T16:16:22.580Z,2.80
2022-12-11T16:18:51.549Z,2.80
2022-12-11T16:21:21.599Z,2.80
2022-12-11T16:23:48.976Z,2.80
2022-12-11T16:26:16.157Z,2.80
2022-12-11T16:28:43.444Z,2.70
2022-12-11T16:31:12.010Z,2.70
2022-12-11T16:33:39.061Z,2.70
2022-12-11T16:36:13.936Z,2.70
2022-12-11T16:38:40.979Z,2.70
2022-12-11T16:41:07.971Z,2.70
2022-12-11T16:43:35.289Z,2.60
2022-12-11T16:46:02.348Z,2.60
2022-12-11T16:48:29.559Z,2.60
2022-12-11T16:50:57.336Z,2.60
2022-12-11T16:53:24.922Z,2.60
2022-12-11T16:55:51.995Z,2.60
2022-12-11T16:58:20.025Z,2.60
2022-12-11T17:00:48.444Z,2.60
2022-12-11T17:03:16.048Z,2.60
2022-12-11T17:05:44.012Z,2.60
2022-12-11T17:08:12.914Z,2.60
2022-12-11T17:10:41.707Z,2.50
2022-12-11T17:13:08.816Z,2.50
2022-12-11T17:15:40.492Z,2.50
2022-12-11T17:18:08.001Z,2.50
2022-12-11T17:20:35.187Z,2.40
2022-12-11T17:23:04.973Z,2.40
2022-12-11T17:25:32.101Z,2.40
2022-12-11T17:27:59.129Z,2.40
2022-12-11T17:30:26.141Z,2.40
2022-12-11T17:32:53.188Z,2.30
2022-12-11T17:35:20.300Z,2.30
2022-12-11T17:37:47.451Z,2.30
2022-12-11T17:40:14.723Z,2.30
2022-12-11T17:42:44.146Z,2.30
2022-12-11T17:45:11.916Z,2.40
2022-12-11T17:47:39.202Z,2.40
2022-12-11T17:50:06.844Z,2.30
2022-12-11T17:52:36.406Z,2.40
2022-12-11T17:55:07.358Z,2.40
2022-12-11T17:57:34.747Z,2.40
2022-12-11T18:00:01.860Z,2.40
2022-12-11T18:02:28.888Z,2.40
2022-12-11T18:04:56.083Z,2.50
2022-12-11T18:07:23.194Z,2.40
2022-12-11T18:09:50.293Z,2.50
2022-12-11T18:12:17.441Z,2.50
2022-12-11T18:14:44.459Z,2.50
2022-12-11T18:17:11.516Z,2.50
2022-12-11T18:19:44.428Z,2.50
2022-12-11T18:22:12.930Z,2.50
2022-12-11T18:24:39.885Z,2.50
2022-12-11T18:27:10.273Z,2.50
2022-12-11T18:29:37.423Z,2.60
2022-12-11T18:32:04.540Z,2.60
2022-12-11T18:34:31.553Z,2.60
2022-12-11T18:36:58.499Z,2.60
2022-12-11T18:39:25.714Z,2.60
2022-12-11T18:42:16.587Z,2.60
2022-12-11T18:44:40.107Z,2.60
2022-12-11T18:47:07.217Z,2.60
2022-12-11T18:49:34.180Z,2.60
2022-12-11T18:52:01.138Z,2.60
2022-12-11T18:54:28.288Z,2.60
2022-12-11T18:56:55.259Z,2.70
2022-12-11T18:59:22.323Z,2.70
2022-12-11T19:01:49.314Z,2.70
2022-12-11T19:04:16.298Z,2.70
2022-12-11T19:06:43.251Z,2.70
2022-12-11T19:09:12.675Z,2.70
2022-12-11T19:11:41.117Z,2.70
2022-12-11T19:14:09.122Z,2.70
2022-12-11T19:16:42.786Z,2.70
2022-12-11T19:19:13.802Z,2.70
2022-12-11T19:21:41.384Z,2.70
2022-12-11T19:24:11.962Z,2.70
2022-12-11T19:26:39.122Z,2.60
2022-12-11T19:29:06.439Z,2.60
2022-12-11T19:31:33.909Z,2.70
2022-12-11T19:34:02.091Z,2.60
2022-12-11T19:36:30.901Z,2.60
2022-12-11T19:39:01.807Z,2.60
2022-12-11T19:41:30.578Z,2.60
2022-12-11T19:43:59.202Z,2.60
2022-12-11T19:46:26.327Z,2.60
2022-12-11T19:48:55.257Z,2.60
2022-12-11T19:51:29.085Z,2.60
2022-12-11T19:53:56.710Z,2.60
2022-12-11T19:56:23.997Z,2.60
2022-12-11T19:58:51.038Z,2.60
2022-12-11T20:01:25.833Z,2.60
2022-12-11T20:03:53.932Z,2.60
2022-12-11T20:06:21.421Z,2.60
2022-12-11T20:08:48.581Z,2.60
2022-12-11T20:11:19.161Z,2.60
2022-12-11T20:13:50.203Z,2.60
2022-12-11T20:16:28.834Z,2.60
2022-12-11T20:19:08.366Z,2.60
2022-12-11T20:21:35.465Z,2.60
2022-12-11T20:24:02.525Z,2.60
2022-12-11T20:26:31.983Z,2.60
2022-12-11T20:28:59.019Z,2.60
2022-12-11T20:31:26.752Z,2.60
2022-12-11T20:33:57.707Z,2.60
2022-12-11T20:36:25.891Z,2.60
2022-12-11T20:39:00.308Z,2.60
2022-12-11T20:41:29.490Z,2.60
2022-12-11T20:43:57.870Z,2.60
2022-12-11T20:46:26.440Z,2.60
2022-12-11T20:48:54.060Z,2.60
2022-12-11T20:51:25.711Z,2.60
2022-12-11T20:53:59.336Z,2.60
2022-12-11T20:56:29.729Z,2.60
2022-12-11T20:58:58.406Z,2.60
2022-12-11T21:01:27.724Z,2.50
2022-12-11T21:03:55.619Z,2.50
2022-12-11T21:06:31.062Z,2.50
2022-12-11T21:09:00.773Z,2.50
2022-12-11T21:11:28.236Z,2.50
2022-12-11T21:13:55.681Z,2.50
2022-12-11T21:16:22.992Z,2.50
2022-12-11T21:18:50.218Z,2.50
2022-12-11T21:21:17.655Z,2.40
2022-12-11T21:23:45.027Z,2.40
2022-12-11T21:26:12.417Z,2.40
2022-12-11T21:28:39.408Z,2.40
2022-12-11T21:31:11.350Z,2.40
2022-12-11T21:33:38.426Z,2.30
2022-12-11T21:36:07.005Z,2.30
2022-12-11T21:38:34.001Z,2.30
2022-12-11T21:41:27.517Z,2.20
2022-12-11T21:45:21.168Z,2.20
2022-12-11T21:46:43.696Z,2.10
2022-12-11T21:49:10.750Z,2.10
2022-12-11T21:51:47.407Z,2.10
2022-12-11T21:54:17.302Z,2.10
2022-12-11T21:56:45.209Z,2.10
2022-12-11T21:59:12.536Z,2.10
2022-12-11T22:01:42.181Z,2.00
2022-12-11T22:04:10.890Z,2.10
2022-12-11T22:06:38.175Z,2.00
2022-12-11T22:09:06.077Z,2.10
2022-12-11T22:11:34.079Z,2.10
2022-12-11T22:14:02.020Z,2.10
2022-12-11T22:16:29.232Z,2.10
2022-12-11T22:18:56.335Z,2.00
2022-12-11T22:21:23.384Z,2.00
2022-12-11T22:23:50.622Z,2.00
2022-12-11T22:26:24.976Z,2.00
2022-12-11T22:28:52.828Z,2.00
2022-12-11T22:31:23.024Z,2.00
2022-12-11T22:33:51.357Z,1.90
2022-12-11T22:36:19.027Z,1.90
2022-12-11T22:38:46.700Z,1.90
2022-12-11T22:41:22.195Z,1.90
2022-12-11T22:43:50.073Z,1.90
2022-12-11T22:46:19.514Z,1.90
2022-12-11T22:48:46.700Z,1.80
2022-12-11T22:51:14.807Z,1.80
2022-12-11T22:53:41.834Z,1.80
2022-12-11T22:56:10.482Z,1.80
2022-12-11T22:58:37.704Z,1.80
2022-12-11T23:01:11.274Z,1.80
2022-12-11T23:03:38.517Z,1.80
2022-12-11T23:06:11.348Z,1.70
2022-12-11T23:08:39.381Z,1.70
2022-12-11T23:11:26.577Z,1.70
2022-12-11T23:13:54.559Z,1.70
2022-12-11T23:16:22.889Z,1.60
2022-12-11T23:18:50.792Z,1.60
2022-12-11T23:21:17.822Z,1.60
2022-12-11T23:23:44.851Z,1.60
2022-12-11T23:26:13.628Z,1.60
2022-12-11T23:28:41.097Z,1.50
2022-12-11T23:31:09.475Z,1.50
2022-12-11T23:33:37.175Z,1.50
2022-12-11T23:36:06.046Z,1.50
2022-12-11T23:38:33.273Z,1.40
2022-12-11T23:41:02.819Z,1.40
2022-12-11T23:43:29.898Z,1.40
2022-12-11T23:45:57.789Z,1.40
2022-12-11T23:48:24.904Z,1.40
2022-12-11T23:50:52.100Z,1.30
2022-12-11T23:53:19.118Z,1.30
2022-12-11T23:55:46.660Z,1.30
2022-12-11T23:58:13.825Z,1.30
